createdAt,value
2019-04-01T00:02:07.514Z,18.23
2019-04-01T00:04:14.929Z,18.57
2019-04-01T00:06:22.491Z,29.87
2019-04-01T00:08:29.949Z,35.00
2019-04-01T00:10:37.316Z,44.13
2019-04-01T00:12:44.714Z,60.90
2019-04-01T00:14:52.089Z,47.70
2019-04-01T00:16:59.476Z,43.83
2019-04-01T00:19:07.026Z,31.80
2019-04-01T00:21:14.376Z,28.43
2019-04-01T00:23:21.816Z,89.50
2019-04-01T00:25:29.201Z,103.83
2019-04-01T00:27:36.636Z,138.07
2019-04-01T00:29:43.997Z,73.43
2019-04-01T00:31:51.460Z,65.70
2019-04-01T00:33:58.828Z,50.30
2019-04-01T00:36:06.190Z,38.00
2019-04-01T00:38:13.539Z,25.63
2019-04-01T00:40:20.892Z,21.10
2019-04-01T00:42:39.107Z,19.27
2019-04-01T00:44:46.551Z,21.37
2019-04-01T00:46:53.919Z,16.67
2019-04-01T00:49:01.397Z,44.13
2019-04-01T00:51:08.724Z,50.13
2019-04-01T00:53:17.995Z,60.87
2019-04-01T00:55:25.367Z,70.83
2019-04-01T00:57:32.749Z,172.33
2019-04-01T00:59:40.150Z,159.13
2019-04-01T01:01:47.559Z,217.97
2019-04-01T01:03:54.951Z,82.63
2019-04-01T01:06:02.275Z,74.00
2019-04-01T01:08:09.709Z,51.17
2019-04-01T01:10:17.258Z,37.10
2019-04-01T01:12:24.605Z,27.83
2019-04-01T01:14:31.978Z,20.80
2019-04-01T01:16:39.265Z,16.33
2019-04-01T01:18:46.636Z,14.47
2019-04-01T01:20:54.079Z,15.80
2019-04-01T01:23:01.457Z,14.73
2019-04-01T01:25:09.021Z,13.13
2019-04-01T01:27:16.409Z,11.40
2019-04-01T01:29:23.738Z,8.40
2019-04-01T01:31:31.093Z,8.93
2019-04-01T01:33:38.427Z,7.97
2019-04-01T01:35:45.968Z,9.30
2019-04-01T01:37:53.411Z,11.47
2019-04-01T01:40:00.782Z,11.80
2019-04-01T01:42:08.107Z,11.63
2019-04-01T01:44:15.472Z,17.07
2019-04-01T01:46:22.876Z,13.80
2019-04-01T01:48:30.256Z,10.43
2019-04-01T01:50:38.214Z,8.17
2019-04-01T01:52:45.561Z,8.27
2019-04-01T01:54:53.740Z,10.00
2019-04-01T01:57:01.128Z,8.73
2019-04-01T01:59:08.464Z,7.90
2019-04-01T02:01:15.801Z,7.67
2019-04-01T02:03:23.227Z,6.90
2019-04-01T02:05:30.636Z,6.07
2019-04-01T02:07:38.047Z,6.30
2019-04-01T02:09:45.394Z,5.87
2019-04-01T02:11:52.809Z,5.40
2019-04-01T02:14:00.166Z,5.93
2019-04-01T02:16:07.525Z,6.70
2019-04-01T02:18:14.915Z,8.67
2019-04-01T02:20:22.248Z,7.80
2019-04-01T02:22:29.580Z,8.07
2019-04-01T02:24:36.935Z,6.67
2019-04-01T02:26:44.325Z,8.20
2019-04-01T02:28:51.893Z,6.90
2019-04-01T02:30:59.213Z,6.17
2019-04-01T02:33:06.616Z,7.60
2019-04-01T02:35:14.183Z,7.37
2019-04-01T02:37:21.618Z,6.63
2019-04-01T02:39:29.038Z,5.50
2019-04-01T02:41:36.641Z,6.40
2019-04-01T02:43:44.004Z,6.33
2019-04-01T02:45:51.365Z,7.43
2019-04-01T02:47:58.758Z,7.97
2019-04-01T02:50:06.489Z,14.10
2019-04-01T02:52:13.942Z,25.80
2019-04-01T02:54:21.417Z,23.07
2019-04-01T02:56:28.874Z,23.00
2019-04-01T02:58:36.358Z,18.33
2019-04-01T03:00:43.893Z,12.80
2019-04-01T03:02:51.318Z,9.93
2019-04-01T03:04:58.668Z,8.37
2019-04-01T03:07:06.006Z,7.93
2019-04-01T03:09:13.417Z,7.07
2019-04-01T03:11:20.792Z,6.83
2019-04-01T03:13:28.201Z,9.20
2019-04-01T03:15:35.620Z,11.37
2019-04-01T03:17:43.052Z,10.60
2019-04-01T03:19:50.489Z,8.57
2019-04-01T03:21:57.857Z,26.97
2019-04-01T03:24:05.357Z,70.23
2019-04-01T03:26:12.702Z,66.30
2019-04-01T03:28:20.184Z,80.33
2019-04-01T03:30:27.662Z,107.90
2019-04-01T03:32:35.123Z,97.37
2019-04-01T03:34:42.480Z,95.43
2019-04-01T03:36:49.823Z,46.53
2019-04-01T03:38:57.280Z,68.13
2019-04-01T03:41:04.678Z,36.07
2019-04-01T03:43:12.044Z,30.30
2019-04-01T03:45:19.413Z,52.20
2019-04-01T03:47:26.868Z,107.50
2019-04-01T03:49:34.262Z,147.07
2019-04-01T03:51:41.699Z,145.37
2019-04-01T03:53:49.024Z,140.83
2019-04-01T03:55:56.441Z,125.30
2019-04-01T03:58:03.921Z,89.27
2019-04-01T04:00:11.692Z,51.40
2019-04-01T04:02:19.141Z,33.77
2019-04-01T04:04:26.545Z,37.83
2019-04-01T04:06:33.976Z,20.47
2019-04-01T04:08:41.951Z,20.93
2019-04-01T04:10:49.692Z,15.50
2019-04-01T04:12:57.031Z,11.93
2019-04-01T04:15:04.604Z,12.83
2019-04-01T04:17:12.990Z,15.30
2019-04-01T04:19:20.852Z,29.63
2019-04-01T04:21:28.271Z,27.83
2019-04-01T04:23:35.668Z,51.43
2019-04-01T04:25:43.152Z,85.40
2019-04-01T04:27:50.547Z,95.10
2019-04-01T04:29:58.947Z,47.23
2019-04-01T04:32:06.446Z,56.87
2019-04-01T04:34:13.838Z,64.83
2019-04-01T04:36:21.275Z,31.23
2019-04-01T04:38:28.649Z,36.13
2019-04-01T04:40:36.049Z,23.70
2019-04-01T04:42:43.419Z,45.50
2019-04-01T04:44:50.860Z,31.93
2019-04-01T04:46:58.289Z,33.80
2019-04-01T04:49:06.238Z,32.67
2019-04-01T04:51:13.644Z,28.33
2019-04-01T04:53:21.060Z,48.83
2019-04-01T04:55:28.444Z,33.57
2019-04-01T04:57:35.853Z,45.00
2019-04-01T04:59:43.515Z,33.57
2019-04-01T05:01:50.997Z,26.10
2019-04-01T05:03:58.449Z,35.20
2019-04-01T05:06:05.837Z,20.80
2019-04-01T05:08:13.235Z,15.13
2019-04-01T05:10:20.883Z,21.33
2019-04-01T05:12:28.466Z,10.20
2019-04-01T05:14:35.892Z,7.07
2019-04-01T05:16:43.332Z,10.07
2019-04-01T05:18:50.776Z,11.20
2019-04-01T05:21:00.524Z,8.00
2019-04-01T05:23:09.216Z,7.07
2019-04-01T05:25:16.609Z,7.47
2019-04-01T05:27:27.377Z,8.27
2019-04-01T05:29:36.157Z,6.77
2019-04-01T05:31:47.229Z,6.83
2019-04-01T05:33:57.051Z,7.30
2019-04-01T05:36:05.254Z,8.57
2019-04-01T05:38:12.715Z,6.30
2019-04-01T05:40:20.231Z,6.30
2019-04-01T05:42:27.794Z,5.47
2019-04-01T05:44:35.227Z,4.80
2019-04-01T05:46:42.760Z,4.43
2019-04-01T05:48:50.247Z,4.50
2019-04-01T05:50:57.728Z,4.53
2019-04-01T05:53:05.348Z,4.60
2019-04-01T05:55:12.747Z,4.93
2019-04-01T05:57:20.124Z,4.90
2019-04-01T05:59:28.058Z,4.53
2019-04-01T06:01:39.719Z,4.57
2019-04-01T06:03:47.110Z,4.37
2019-04-01T06:05:54.583Z,4.10
2019-04-01T06:08:02.605Z,3.93
2019-04-01T06:10:10.205Z,4.50
2019-04-01T06:12:17.658Z,3.63
2019-04-01T06:14:25.214Z,3.90
2019-04-01T06:16:32.684Z,4.30
2019-04-01T06:18:40.168Z,4.40
2019-04-01T06:20:48.366Z,3.37
2019-04-01T06:22:55.843Z,4.20
2019-04-01T06:25:03.489Z,3.57
2019-04-01T06:27:12.033Z,4.30
2019-04-01T06:29:20.323Z,4.00
2019-04-01T06:31:27.867Z,3.23
2019-04-01T06:33:35.501Z,3.47
2019-04-01T06:35:42.921Z,3.20
2019-04-01T06:37:50.737Z,3.33
2019-04-01T06:39:58.206Z,3.00
2019-04-01T06:42:07.133Z,2.83
2019-04-01T06:44:15.105Z,3.20
2019-04-01T06:46:22.770Z,3.70
2019-04-01T06:48:30.400Z,3.30
2019-04-01T06:50:38.111Z,3.63
2019-04-01T06:52:45.526Z,3.10
2019-04-01T06:54:53.259Z,3.20
2019-04-01T06:57:00.749Z,3.37
2019-04-01T06:59:08.285Z,3.40
2019-04-01T07:01:15.774Z,3.80
2019-04-01T07:03:23.145Z,3.10
2019-04-01T07:05:30.548Z,3.40
2019-04-01T07:07:38.150Z,3.63
2019-04-01T07:09:45.985Z,2.97
2019-04-01T07:11:53.497Z,3.77
2019-04-01T07:14:01.091Z,3.17
2019-04-01T07:16:15.294Z,3.70
2019-04-01T07:18:17.661Z,3.33
2019-04-01T07:20:25.020Z,3.50
2019-04-01T07:22:32.677Z,3.10
2019-04-01T07:24:40.158Z,3.00
2019-04-01T07:26:47.647Z,3.50
2019-04-01T07:28:55.533Z,3.00
2019-04-01T07:31:03.158Z,3.10
2019-04-01T07:33:10.531Z,2.90
2019-04-01T07:35:18.175Z,2.83
2019-04-01T07:37:25.684Z,1.97
2019-04-01T07:39:33.267Z,2.33
2019-04-01T07:41:41.050Z,1.63
2019-04-01T07:43:48.737Z,2.13
2019-04-01T07:45:59.826Z,2.00
2019-04-01T07:48:06.837Z,2.00
2019-04-01T07:50:14.773Z,2.30
2019-04-01T07:52:22.671Z,2.03
2019-04-01T07:54:30.430Z,2.27
2019-04-01T07:56:38.059Z,2.17
2019-04-01T07:58:45.766Z,2.40
2019-04-01T08:00:53.389Z,1.83
2019-04-01T08:03:00.927Z,1.90
2019-04-01T08:05:09.537Z,2.27
2019-04-01T08:07:17.037Z,2.00
2019-04-01T08:09:24.534Z,2.10
2019-04-01T08:11:32.343Z,1.93
2019-04-01T08:13:40.150Z,2.00
2019-04-01T08:15:47.567Z,1.90
2019-04-01T08:17:55.091Z,1.90
2019-04-01T08:20:03.540Z,2.10
2019-04-01T08:22:11.125Z,1.70
2019-04-01T08:24:18.591Z,2.20
2019-04-01T08:26:26.214Z,2.33
2019-04-01T08:28:33.678Z,2.00
2019-04-01T08:30:41.236Z,1.83
2019-04-01T08:32:49.051Z,1.60
2019-04-01T08:34:57.177Z,1.77
2019-04-01T08:37:04.630Z,1.73
2019-04-01T08:39:15.925Z,1.93
2019-04-01T08:41:23.282Z,2.00
2019-04-01T08:43:30.893Z,2.20
2019-04-01T08:45:38.449Z,1.70
2019-04-01T08:47:46.277Z,2.20
2019-04-01T08:49:53.636Z,2.60
2019-04-01T08:52:01.174Z,2.63
2019-04-01T08:54:09.075Z,2.20
2019-04-01T08:56:16.588Z,2.60
2019-04-01T08:58:23.939Z,2.27
2019-04-01T09:00:31.626Z,2.40
2019-04-01T09:02:39.277Z,2.87
2019-04-01T09:04:47.049Z,2.40
2019-04-01T09:06:54.517Z,2.70
2019-04-01T09:09:05.698Z,2.53
2019-04-01T09:11:13.489Z,2.40
2019-04-01T09:13:21.308Z,1.93
2019-04-01T09:15:28.701Z,2.70
2019-04-01T09:17:36.093Z,2.30
2019-04-01T09:19:43.598Z,2.50
2019-04-01T09:21:51.390Z,2.40
2019-04-01T09:23:59.857Z,2.30
2019-04-01T09:26:07.319Z,2.33
2019-04-01T09:28:14.873Z,2.20
2019-04-01T09:30:22.765Z,2.10
2019-04-01T09:32:30.360Z,2.50
2019-04-01T09:34:37.884Z,2.50
2019-04-01T09:36:45.377Z,2.50
2019-04-01T09:38:52.793Z,2.50
2019-04-01T09:41:00.270Z,2.30
2019-04-01T09:43:07.700Z,2.20
2019-04-01T09:45:15.320Z,2.10
2019-04-01T09:47:23.153Z,1.70
2019-04-01T09:49:30.675Z,1.60
2019-04-01T09:51:48.351Z,2.03
2019-04-01T09:53:47.320Z,1.90
2019-04-01T09:55:54.715Z,2.50
2019-04-01T09:58:02.163Z,1.90
2019-04-01T10:00:13.162Z,2.13
2019-04-01T10:02:31.662Z,1.80
2019-04-01T10:04:29.698Z,2.13
2019-04-01T10:06:37.149Z,2.00
2019-04-01T10:08:44.567Z,1.97
2019-04-01T10:10:52.101Z,1.90
2019-04-01T10:12:59.491Z,1.97
2019-04-01T10:15:08.033Z,1.93
2019-04-01T10:17:15.461Z,1.93
2019-04-01T10:19:22.867Z,2.03
2019-04-01T10:21:30.380Z,1.70
2019-04-01T10:23:37.737Z,2.10
2019-04-01T10:25:45.110Z,1.97
2019-04-01T10:27:52.492Z,1.80
2019-04-01T10:30:00.160Z,2.10
2019-04-01T10:32:08.072Z,2.27
2019-04-01T10:34:15.617Z,1.60
2019-04-01T10:36:23.186Z,1.70
2019-04-01T10:38:30.625Z,1.70
2019-04-01T10:40:38.251Z,1.43
2019-04-01T10:42:45.740Z,1.60
2019-04-01T10:44:53.169Z,1.53
2019-04-01T10:47:00.696Z,1.70
2019-04-01T10:49:08.362Z,1.50
2019-04-01T10:51:15.869Z,1.60
2019-04-01T10:53:23.441Z,1.67
2019-04-01T10:55:30.932Z,1.70
2019-04-01T10:57:38.382Z,1.40
2019-04-01T10:59:45.893Z,1.57
2019-04-01T11:01:53.337Z,1.60
2019-04-01T11:04:00.900Z,1.90
2019-04-01T11:06:08.413Z,1.80
2019-04-01T11:08:16.037Z,1.50
2019-04-01T11:10:23.419Z,1.60
2019-04-01T11:12:30.956Z,2.30
2019-04-01T11:14:38.325Z,1.30
2019-04-01T11:16:46.227Z,1.60
2019-04-01T11:18:57.842Z,1.50
2019-04-01T11:21:04.975Z,1.90
2019-04-01T11:23:12.775Z,1.43
2019-04-01T11:25:20.416Z,1.50
2019-04-01T11:27:27.837Z,1.40
2019-04-01T11:29:35.325Z,1.40
2019-04-01T11:31:45.194Z,1.57
2019-04-01T11:33:52.561Z,1.23
2019-04-01T11:36:00.319Z,1.40
2019-04-01T11:38:07.782Z,1.40
2019-04-01T11:40:15.788Z,1.10
2019-04-01T11:42:23.479Z,1.20
2019-04-01T11:44:31.020Z,1.30
2019-04-01T11:46:38.448Z,1.20
2019-04-01T11:48:45.917Z,1.20
2019-04-01T11:50:53.986Z,1.97
2019-04-01T11:53:01.841Z,1.23
2019-04-01T11:55:09.793Z,1.30
2019-04-01T11:57:17.449Z,0.97
2019-04-01T11:59:24.884Z,1.20
2019-04-01T12:01:32.178Z,1.03
2019-04-01T12:03:39.380Z,1.27
2019-04-01T12:05:46.518Z,1.40
2019-04-01T12:07:53.904Z,0.90
2019-04-01T12:10:01.184Z,0.90
2019-04-01T12:12:22.327Z,0.90
2019-04-01T12:14:17.315Z,1.10
2019-04-01T12:16:24.534Z,1.00
2019-04-01T12:18:31.659Z,0.90
2019-04-01T12:20:38.858Z,1.20
2019-04-01T12:22:46.354Z,1.20
2019-04-01T12:24:53.637Z,1.17
2019-04-01T12:27:00.862Z,1.30
2019-04-01T12:29:11.589Z,1.00
2019-04-01T12:31:16.995Z,1.20
2019-04-01T12:33:26.146Z,1.20
2019-04-01T12:35:33.173Z,1.10
2019-04-01T12:37:40.355Z,1.03
2019-04-01T12:39:47.737Z,1.20
2019-04-01T12:41:55.020Z,7.53
2019-04-01T12:44:02.233Z,9.17
2019-04-01T12:46:09.594Z,12.80
2019-04-01T12:48:17.203Z,26.97
2019-04-01T12:50:24.592Z,11.33
2019-04-01T12:52:31.952Z,20.77
2019-04-01T12:54:39.677Z,17.10
2019-04-01T12:56:46.905Z,7.50
2019-04-01T12:58:54.676Z,2.80
2019-04-01T13:01:02.090Z,1.80
2019-04-01T13:03:09.315Z,32.93
2019-04-01T13:05:16.586Z,4.03
2019-04-01T13:07:23.883Z,2.07
2019-04-01T13:09:31.154Z,3.07
2019-04-01T13:11:38.647Z,1.17
2019-04-01T13:13:48.701Z,1.40
2019-04-01T13:15:54.757Z,1.70
2019-04-01T13:18:01.999Z,1.20
2019-04-01T13:20:10.137Z,1.00
2019-04-01T13:22:17.282Z,1.00
2019-04-01T13:24:24.631Z,1.50
2019-04-01T13:26:31.928Z,1.30
2019-04-01T13:28:42.259Z,1.20
2019-04-01T13:30:48.348Z,1.10
2019-04-01T13:32:55.511Z,1.20
2019-04-01T13:35:02.749Z,1.03
2019-04-01T13:37:10.047Z,1.17
2019-04-01T13:39:17.374Z,1.20
2019-04-01T13:41:25.204Z,1.30
2019-04-01T13:43:32.703Z,1.70
2019-04-01T13:45:40.151Z,2.93
2019-04-01T13:47:47.404Z,3.00
2019-04-01T13:49:54.595Z,1.63
2019-04-01T13:52:03.752Z,1.70
2019-04-01T13:54:11.565Z,1.37
2019-04-01T13:56:19.176Z,0.87
2019-04-01T13:58:26.462Z,1.10
2019-04-01T14:00:33.779Z,1.03
2019-04-01T14:02:41.080Z,1.20
2019-04-01T14:04:48.462Z,1.27
2019-04-01T14:06:55.617Z,1.10
2019-04-01T14:09:02.905Z,1.40
2019-04-01T14:11:10.021Z,1.50
2019-04-01T14:13:17.255Z,1.77
2019-04-01T14:15:24.614Z,1.87
2019-04-01T14:17:31.980Z,1.83
2019-04-01T14:19:39.181Z,1.10
2019-04-01T14:21:46.491Z,1.30
2019-04-01T14:23:53.787Z,1.40
2019-04-01T14:26:01.030Z,2.03
2019-04-01T14:28:09.294Z,1.50
2019-04-01T14:30:17.121Z,1.37
2019-04-01T14:32:24.667Z,1.40
2019-04-01T14:34:31.827Z,1.50
2019-04-01T14:36:39.140Z,1.20
2019-04-01T14:38:46.367Z,1.30
2019-04-01T14:40:53.645Z,1.70
2019-04-01T14:43:00.849Z,1.80
2019-04-01T14:45:08.966Z,4.33
2019-04-01T14:47:16.321Z,5.33
2019-04-01T14:49:23.558Z,2.20
2019-04-01T14:51:30.939Z,8.10
2019-04-01T14:53:38.228Z,5.77
2019-04-01T14:55:45.472Z,6.27
2019-04-01T14:57:52.712Z,3.67
2019-04-01T14:59:59.983Z,2.80
2019-04-01T15:02:07.258Z,2.33
2019-04-01T15:04:14.609Z,4.67
2019-04-01T15:06:22.282Z,16.40
2019-04-01T15:08:29.553Z,4.33
2019-04-01T15:10:36.880Z,11.63
2019-04-01T15:12:48.575Z,2.40
2019-04-01T15:14:56.948Z,2.00
2019-04-01T15:17:04.878Z,2.60
2019-04-01T15:19:13.084Z,4.83
2019-04-01T15:21:22.493Z,5.83
2019-04-01T15:23:29.770Z,3.23
2019-04-01T15:25:37.121Z,7.77
2019-04-01T15:27:44.326Z,3.93
2019-04-01T15:29:51.484Z,2.63
2019-04-01T15:31:58.783Z,2.47
2019-04-01T15:34:08.970Z,5.00
2019-04-01T15:36:15.069Z,4.73
2019-04-01T15:38:23.274Z,5.87
2019-04-01T15:40:33.248Z,6.93
2019-04-01T15:42:40.708Z,10.23
2019-04-01T15:44:49.556Z,5.43
2019-04-01T15:46:56.842Z,8.93
2019-04-01T15:49:04.155Z,17.03
2019-04-01T15:51:11.389Z,17.43
2019-04-01T15:53:18.636Z,9.63
2019-04-01T15:55:25.933Z,4.40
2019-04-01T15:57:33.229Z,8.30
2019-04-01T15:59:41.620Z,4.50
2019-04-01T16:01:52.671Z,9.67
2019-04-01T16:04:01.877Z,8.80
2019-04-01T16:06:09.877Z,10.00
2019-04-01T16:08:17.010Z,7.87
2019-04-01T16:10:24.222Z,3.63
2019-04-01T16:12:31.741Z,6.07
2019-04-01T16:14:39.307Z,9.60
2019-04-01T16:16:47.429Z,7.07
2019-04-01T16:18:55.064Z,7.87
2019-04-01T16:21:02.252Z,5.30
2019-04-01T16:23:09.757Z,16.40
2019-04-01T16:25:17.132Z,15.80
2019-04-01T16:27:24.353Z,21.00
2019-04-01T16:29:31.890Z,24.83
2019-04-01T16:31:39.041Z,10.80
2019-04-01T16:33:46.764Z,10.73
2019-04-01T16:35:54.228Z,14.37
2019-04-01T16:38:01.649Z,11.47
2019-04-01T16:40:09.941Z,4.23
2019-04-01T16:42:17.337Z,3.50
2019-04-01T16:44:25.296Z,6.53
2019-04-01T16:46:34.323Z,12.10
2019-04-01T16:48:46.515Z,14.13
2019-04-01T16:50:53.657Z,11.73
2019-04-01T16:53:01.543Z,11.37
2019-04-01T16:55:10.560Z,10.87
2019-04-01T16:57:17.839Z,10.10
2019-04-01T16:59:25.230Z,7.97
2019-04-01T17:01:32.580Z,11.20
2019-04-01T17:03:44.492Z,9.87
2019-04-01T17:05:53.146Z,13.10
2019-04-01T17:08:04.337Z,14.97
2019-04-01T17:10:22.912Z,10.60
2019-04-01T17:12:30.953Z,14.77
2019-04-01T17:14:41.739Z,8.83
2019-04-01T17:16:51.284Z,15.13
2019-04-01T17:19:00.820Z,11.90
2019-04-01T17:21:10.121Z,21.67
2019-04-01T17:23:20.467Z,21.47
2019-04-01T17:25:29.922Z,34.23
2019-04-01T17:27:39.402Z,29.93
2019-04-01T17:29:50.277Z,62.63
2019-04-01T17:32:05.082Z,61.63
2019-04-01T17:34:18.401Z,51.03
2019-04-01T17:36:31.456Z,38.40
2019-04-01T17:38:41.495Z,31.57
2019-04-01T17:40:58.829Z,35.70
2019-04-01T17:43:09.697Z,32.07
2019-04-01T17:45:40.348Z,40.27
2019-04-01T17:47:50.270Z,38.53
2019-04-01T17:50:00.253Z,27.87
2019-04-01T17:52:10.493Z,33.93
2019-04-01T17:54:20.581Z,32.20
2019-04-01T17:56:32.230Z,35.70
2019-04-01T17:58:41.984Z,32.77
2019-04-01T18:00:56.584Z,31.57
2019-04-01T18:03:05.133Z,35.20
2019-04-01T18:05:18.095Z,33.73
2019-04-01T18:07:25.943Z,36.70
2019-04-01T18:09:33.640Z,36.70
2019-04-01T18:11:41.316Z,36.20
2019-04-01T18:13:50.148Z,33.40
2019-04-01T18:15:58.731Z,33.63
2019-04-01T18:18:06.998Z,35.13
2019-04-01T18:20:16.046Z,36.13
2019-04-01T18:22:23.719Z,37.87
2019-04-01T18:24:31.351Z,40.07
2019-04-01T18:26:39.258Z,41.50
2019-04-01T18:28:46.755Z,40.27
2019-04-01T18:30:54.369Z,34.10
2019-04-01T18:33:02.007Z,28.80
2019-04-01T18:35:10.042Z,29.23
2019-04-01T18:37:17.639Z,30.77
2019-04-01T18:39:25.190Z,29.73
2019-04-01T18:41:33.207Z,27.53
2019-04-01T18:43:41.624Z,24.10
2019-04-01T18:45:51.076Z,22.97
2019-04-01T18:47:58.845Z,22.27
2019-04-01T18:50:07.089Z,20.70
2019-04-01T18:52:14.928Z,19.80
2019-04-01T18:54:22.582Z,21.03
2019-04-01T18:56:30.288Z,20.80
2019-04-01T18:58:37.856Z,21.70
2019-04-01T19:00:47.036Z,21.13
2019-04-01T19:02:55.765Z,21.40
2019-04-01T19:05:03.776Z,19.30
2019-04-01T19:07:11.380Z,18.93
2019-04-01T19:09:18.988Z,18.60
2019-04-01T19:11:26.807Z,19.80
2019-04-01T19:13:34.686Z,19.73
2019-04-01T19:15:43.439Z,19.33
2019-04-01T19:17:51.657Z,20.50
2019-04-01T19:19:59.272Z,18.40
2019-04-01T19:22:07.353Z,18.83
2019-04-01T19:24:14.936Z,17.90
2019-04-01T19:26:24.176Z,17.77
2019-04-01T19:28:31.962Z,17.43
2019-04-01T19:30:43.057Z,17.30
2019-04-01T19:32:49.944Z,16.77
2019-04-01T19:34:57.530Z,16.27
2019-04-01T19:37:05.135Z,18.73
2019-04-01T19:39:13.374Z,26.97
2019-04-01T19:41:21.084Z,22.83
2019-04-01T19:43:28.572Z,20.47
2019-04-01T19:45:36.167Z,19.20
2019-04-01T19:47:43.742Z,23.97
2019-04-01T19:49:51.442Z,20.53
2019-04-01T19:51:59.300Z,23.07
2019-04-01T19:54:07.000Z,22.43
2019-04-01T19:56:14.534Z,22.17
2019-04-01T19:58:22.042Z,19.57
2019-04-01T20:00:30.662Z,16.70
2019-04-01T20:02:38.923Z,14.03
2019-04-01T20:04:47.468Z,15.97
2019-04-01T20:06:56.013Z,13.00
2019-04-01T20:09:05.977Z,12.80
2019-04-01T20:11:15.214Z,11.40
2019-04-01T20:13:23.208Z,14.07
2019-04-01T20:15:30.965Z,11.97
2019-04-01T20:17:39.105Z,10.97
2019-04-01T20:19:47.374Z,10.37
2019-04-01T20:21:55.059Z,12.03
2019-04-01T20:24:02.640Z,10.87
2019-04-01T20:26:10.259Z,9.67
2019-04-01T20:28:18.219Z,10.30
2019-04-01T20:30:26.234Z,11.47
2019-04-01T20:32:33.986Z,11.73
2019-04-01T20:34:41.456Z,10.93
2019-04-01T20:36:49.093Z,11.67
2019-04-01T20:38:56.621Z,11.87
2019-04-01T20:41:04.682Z,12.33
2019-04-01T20:43:12.362Z,12.83
2019-04-01T20:45:20.239Z,13.70
2019-04-01T20:47:27.913Z,16.87
2019-04-01T20:49:35.553Z,23.60
2019-04-01T20:51:43.585Z,27.27
2019-04-01T20:53:51.342Z,31.87
2019-04-01T20:55:59.338Z,34.27
2019-04-01T20:58:07.034Z,32.43
2019-04-01T21:00:15.580Z,31.17
2019-04-01T21:02:23.180Z,24.20
2019-04-01T21:04:31.668Z,21.03
2019-04-01T21:06:39.171Z,19.90
2019-04-01T21:08:47.408Z,20.33
2019-04-01T21:10:57.427Z,18.73
2019-04-01T21:13:06.116Z,18.90
2019-04-01T21:15:14.145Z,21.07
2019-04-01T21:17:21.606Z,22.40
2019-04-01T21:19:29.377Z,24.30
2019-04-01T21:21:36.853Z,27.20
2019-04-01T21:23:44.253Z,27.93
2019-04-01T21:25:51.881Z,30.90
2019-04-01T21:27:59.286Z,31.20
2019-04-01T21:30:09.090Z,31.37
2019-04-01T21:32:17.089Z,26.57
2019-04-01T21:34:25.001Z,25.00
2019-04-01T21:36:32.500Z,26.80
2019-04-01T21:38:40.043Z,23.37
2019-04-01T21:40:47.658Z,21.93
2019-04-01T21:42:55.205Z,20.47
2019-04-01T21:45:02.956Z,18.33
2019-04-01T21:47:11.163Z,19.43
2019-04-01T21:49:19.458Z,18.90
2019-04-01T21:51:26.899Z,18.70
2019-04-01T21:53:34.352Z,18.20
2019-04-01T21:55:42.000Z,17.23
2019-04-01T21:57:51.159Z,18.33
2019-04-01T21:59:58.780Z,20.53
2019-04-01T22:02:07.086Z,22.43
2019-04-01T22:04:14.585Z,24.80
2019-04-01T22:06:22.050Z,27.27
2019-04-01T22:08:29.428Z,27.10
2019-04-01T22:10:36.969Z,27.80
2019-04-01T22:12:44.461Z,28.13
2019-04-01T22:14:53.219Z,27.43
2019-04-01T22:17:01.484Z,27.00
2019-04-01T22:19:08.932Z,24.93
2019-04-01T22:21:16.353Z,24.93
2019-04-01T22:23:23.810Z,23.20
2019-04-01T22:25:31.193Z,22.50
2019-04-01T22:27:38.568Z,22.77
2019-04-01T22:29:45.946Z,22.30
2019-04-01T22:31:53.344Z,20.77
2019-04-01T22:34:00.707Z,20.93
2019-04-01T22:36:08.129Z,20.13
2019-04-01T22:38:24.595Z,20.47
2019-04-01T22:40:24.978Z,20.43
2019-04-01T22:42:32.375Z,19.93
2019-04-01T22:44:39.720Z,19.80
2019-04-01T22:46:47.522Z,19.83
2019-04-01T22:48:55.592Z,20.07
2019-04-01T22:51:03.207Z,20.53
2019-04-01T22:53:10.582Z,20.13
2019-04-01T22:55:17.998Z,20.23
2019-04-01T22:57:25.495Z,18.80
2019-04-01T22:59:33.049Z,21.47
2019-04-01T23:01:40.534Z,20.83
2019-04-01T23:03:47.895Z,20.43
2019-04-01T23:05:55.752Z,20.33
2019-04-01T23:08:03.357Z,20.77
2019-04-01T23:10:11.060Z,20.17
2019-04-01T23:12:18.649Z,18.37
2019-04-01T23:14:26.017Z,18.10
2019-04-01T23:16:33.417Z,17.47
2019-04-01T23:18:40.965Z,17.10
2019-04-01T23:20:48.337Z,16.90
2019-04-01T23:22:55.746Z,16.07
2019-04-01T23:25:03.312Z,17.03
2019-04-01T23:27:10.830Z,16.87
2019-04-01T23:29:18.300Z,16.50
2019-04-01T23:31:25.697Z,17.47
2019-04-01T23:33:33.151Z,18.03
2019-04-01T23:35:40.584Z,17.90
2019-04-01T23:37:48.086Z,16.87
2019-04-01T23:39:55.485Z,16.67
2019-04-01T23:42:02.938Z,17.70
2019-04-01T23:44:10.326Z,17.67
2019-04-01T23:46:18.932Z,16.63
2019-04-01T23:48:26.475Z,16.50
2019-04-01T23:50:34.000Z,16.30
2019-04-01T23:52:41.475Z,15.90
2019-04-01T23:54:48.885Z,15.50
2019-04-01T23:56:56.613Z,15.90
2019-04-01T23:59:04.086Z,14.87
